Weather at Cardiff International Airport

Public forecast

Using degrees Celsius for public forecast. Weather courtesy of forecast.io.

Current aviation weather report (METAR) for Cardiff International Airport

Retrieved 2021/07/29 15:20 UTC (24 minutes ago):

EGFF 291520Z AUTO 28010KT 9999 NCD 19/11 Q1010

Aviation forecast (TAF) for Cardiff International Airport

Retrieved 2021/07/29 12:00 UTC (4 hours ago):

TAF EGFF 291056Z 2912/3012 27014KT 9999 FEW022 SCT030 TEMPO 2916/3012 7000 RA BKN014 BECMG 2917/2920 13014KT TEMPO 2920/3007 16020G32KT PROB40 TEMPO 2920/2924 3000 +SHRA BKN006 BECMG 3003/3006 28015KT PROB30 TEMPO 3003/3012 3000 +SHRA BKN008 TEMPO 3007/3012 29018G30KT